Time;durP1;ratioP1;P1;durP2;ratioP2;P2;SDS_P1;SDS_P2;PMS_P1;PMS_P2;Temp;Humidity;BMP_temperature;BMP_pressure;BME280_temperature;BME280_humidity;BME280_pressure;Samples;Min_cycle;Max_cycle;Signal;HPM_P1;HPM_P2
2022/02/25 00:01:47;;;;;;;;;;;5.50;99.90;;;;;;5059560;28;19909;-64
2022/02/25 00:04:13;;;;;;;;;;;5.50;99.90;;;;;;5040896;28;19958;-67
2022/02/25 00:06:38;;;;;;;;;;;5.60;99.90;;;;;;5041609;28;20003;-67
2022/02/25 00:09:05;;;;;;;;;;;5.50;99.90;;;;;;5058183;28;19915;-65
2022/02/25 00:11:31;;;;;;;;;;;5.50;99.90;;;;;;5041336;28;19959;-65
2022/02/25 00:13:57;;;;;;;;;;;5.40;99.90;;;;;;5058586;28;19909;-64
2022/02/25 00:16:22;;;;;;;;;;;5.40;99.90;;;;;;5040473;28;20010;-65
2022/02/25 00:18:48;;;;;;;;;;;5.40;99.90;;;;;;5058226;28;19909;-65
2022/02/25 00:21:13;;;;;;;;;;;5.30;99.90;;;;;;5057199;28;19924;-65
2022/02/25 00:23:39;;;;;;;;;;;5.30;99.90;;;;;;5057376;28;19996;-68
2022/02/25 00:26:04;;;;;;;;;;;5.40;99.90;;;;;;5036723;28;19913;-67
2022/02/25 00:28:30;;;;;;;;;;;5.50;99.90;;;;;;5056719;28;19919;-64
2022/02/25 00:30:55;;;;;;;;;;;5.40;99.90;;;;;;5038650;28;19904;-67
2022/02/25 00:33:21;;;;;;;;;;;5.40;99.90;;;;;;5056403;28;19928;-64
2022/02/25 00:35:49;;;;;;;;;;;5.30;99.90;;;;;;5056448;28;19905;-64
2022/02/25 00:38:15;;;;;;;;;;;5.20;99.90;;;;;;5038077;28;19915;-64
2022/02/25 00:40:41;;;;;;;;;;;5.10;99.90;;;;;;5038468;28;19904;-66
2022/02/25 00:43:07;;;;;;;;;;;5.20;99.90;;;;;;5037980;28;19955;-65
2022/02/25 00:45:32;;;;;;;;;;;5.20;99.90;;;;;;5056664;28;19913;-70
2022/02/25 00:47:58;;;;;;;;;;;5.20;99.90;;;;;;5057033;28;19915;-64
2022/02/25 00:50:24;;;;;;;;;;;5.30;99.90;;;;;;5056144;28;19905;-64
2022/02/25 00:52:49;;;;;;;;;;;5.30;99.90;;;;;;5056106;28;19912;-64
2022/02/25 00:55:15;;;;;;;;;;;5.20;99.90;;;;;;5055585;28;19908;-64
2022/02/25 00:57:44;;;;;;;;;;;5.10;99.90;;;;;;5056946;28;19905;-66
2022/02/25 01:00:12;;;;;;;;;;;5.00;99.90;;;;;;5058862;28;19905;-70
2022/02/25 01:02:38;;;;;;;;;;;5.10;99.90;;;;;;5057730;28;19905;-66
2022/02/25 01:05:04;;;;;;;;;;;5.00;99.90;;;;;;5040156;28;19915;-67
2022/02/25 01:07:29;;;;;;;;;;;5.10;99.90;;;;;;5057583;28;20286;-66
2022/02/25 01:09:55;;;;;;;;;;;5.10;99.90;;;;;;5056998;28;19978;-65
2022/02/25 01:12:20;;;;;;;;;;;5.10;99.90;;;;;;5056486;28;20380;-66
2022/02/25 01:14:46;;;;;;;;;;;5.10;99.90;;;;;;5056652;28;19916;-65
2022/02/25 01:17:11;;;;;;;;;;;5.20;99.90;;;;;;5056417;28;20014;-66
2022/02/25 01:19:37;;;;;;;;;;;5.20;99.90;;;;;;5055294;28;19909;-65
2022/02/25 01:22:03;;;;;;;;;;;5.20;99.90;;;;;;5038065;28;20015;-63
2022/02/25 01:24:29;;;;;;;;;;;5.10;99.90;;;;;;5054690;28;19963;-66
2022/02/25 01:26:55;;;;;;;;;;;5.10;99.90;;;;;;5037704;28;20373;-63
2022/02/25 01:29:20;;;;;;;;;;;5.00;99.90;;;;;;5036974;28;19987;-63
2022/02/25 01:31:46;;;;;;;;;;;5.10;99.90;;;;;;5037943;28;20360;-65
2022/02/25 01:34:12;;;;;;;;;;;5.10;99.90;;;;;;5055715;28;20342;-65
2022/02/25 01:36:37;;;;;;;;;;;4.90;99.90;;;;;;5038094;28;19932;-65
2022/02/25 01:39:03;;;;;;;;;;;5.10;99.90;;;;;;5037715;28;19995;-64
2022/02/25 01:41:30;;;;;;;;;;;5.00;99.90;;;;;;5054898;28;19931;-64
2022/02/25 01:44:11;;;;;;;;;;;5.00;99.90;;;;;;5038331;28;20058;-66
2022/02/25 01:46:36;;;;;;;;;;;5.00;99.90;;;;;;5055590;28;19912;-65
2022/02/25 01:49:02;;;;;;;;;;;5.00;99.90;;;;;;5055351;28;19993;-63
2022/02/25 01:51:27;;;;;;;;;;;5.00;99.90;;;;;;5037048;28;19905;-64
2022/02/25 01:53:53;;;;;;;;;;;5.00;99.90;;;;;;5055174;28;19912;-63
2022/02/25 01:56:18;;;;;;;;;;;5.00;99.90;;;;;;5054930;28;19978;-64
2022/02/25 01:58:44;;;;;;;;;;;5.00;99.90;;;;;;5055287;28;20366;-65
2022/02/25 02:01:10;;;;;;;;;;;5.00;99.90;;;;;;5036282;28;19944;-68
2022/02/25 02:03:35;;;;;;;;;;;5.00;99.90;;;;;;5055186;28;19989;-64
2022/02/25 02:06:01;;;;;;;;;;;5.00;99.90;;;;;;5054127;28;19913;-65
2022/02/25 02:08:26;;;;;;;;;;;5.00;99.90;;;;;;5054229;28;19959;-63
2022/02/25 02:10:52;;;;;;;;;;;4.90;99.90;;;;;;5036794;28;19905;-64
2022/02/25 02:13:18;;;;;;;;;;;4.90;99.90;;;;;;5053682;28;19905;-63
2022/02/25 02:15:43;;;;;;;;;;;4.90;99.90;;;;;;5054972;28;20007;-64
2022/02/25 02:18:09;;;;;;;;;;;4.90;99.90;;;;;;5038237;28;20403;-64
2022/02/25 02:20:34;;;;;;;;;;;4.80;99.90;;;;;;5037281;28;19921;-64
2022/02/25 02:23:00;;;;;;;;;;;4.80;99.90;;;;;;5055987;28;19909;-67
2022/02/25 02:25:25;;;;;;;;;;;4.70;99.90;;;;;;5036441;28;20050;-64
2022/02/25 02:28:27;;;;;;;;;;;4.80;99.90;;;;;;5036565;28;19904;-65
2022/02/25 02:30:44;;;;;;;;;;;4.80;99.90;;;;;;5051823;28;19995;-64
2022/02/25 02:33:10;;;;;;;;;;;4.80;99.90;;;;;;5053598;28;20367;-65
2022/02/25 02:35:35;;;;;;;;;;;4.80;99.90;;;;;;5053084;28;19955;-64
2022/02/25 02:38:01;;;;;;;;;;;4.80;99.90;;;;;;5052611;28;20277;-65
2022/02/25 02:40:31;;;;;;;;;;;4.70;99.90;;;;;;5052924;28;19912;-64
2022/02/25 02:42:59;;;;;;;;;;;4.70;99.90;;;;;;5053828;28;19909;-64
2022/02/25 02:45:27;;;;;;;;;;;4.70;99.90;;;;;;5036437;28;19975;-63
2022/02/25 02:47:54;;;;;;;;;;;4.70;99.90;;;;;;5038007;28;19904;-65
2022/02/25 02:50:20;;;;;;;;;;;4.80;99.90;;;;;;5036024;28;19905;-70
2022/02/25 02:52:46;;;;;;;;;;;4.60;99.90;;;;;;5055990;28;19955;-65
2022/02/25 02:55:11;;;;;;;;;;;4.60;99.90;;;;;;5036059;28;19904;-64
2022/02/25 02:57:37;;;;;;;;;;;4.70;99.90;;;;;;5053242;28;19935;-64
2022/02/25 03:00:04;;;;;;;;;;;4.60;99.90;;;;;;5053563;28;19905;-65
2022/02/25 03:02:29;;;;;;;;;;;4.60;99.90;;;;;;5053092;28;20354;-63
2022/02/25 03:04:55;;;;;;;;;;;4.60;99.90;;;;;;5053814;28;19924;-63
2022/02/25 03:07:20;;;;;;;;;;;4.50;99.90;;;;;;5035199;28;19912;-65
2022/02/25 03:09:46;;;;;;;;;;;4.50;99.90;;;;;;5053512;28;20251;-64
2022/02/25 03:12:11;;;;;;;;;;;4.50;99.90;;;;;;5053566;28;19999;-64
2022/02/25 03:14:37;;;;;;;;;;;4.50;99.90;;;;;;5035039;28;20011;-65
2022/02/25 03:17:03;;;;;;;;;;;4.40;99.90;;;;;;5053819;28;19905;-64
2022/02/25 03:19:29;;;;;;;;;;;4.20;99.90;;;;;;5056062;28;19951;-65
2022/02/25 03:21:54;;;;;;;;;;;4.20;99.90;;;;;;5057111;28;20063;-67
2022/02/25 03:24:20;;;;;;;;;;;4.20;99.90;;;;;;5055203;28;19912;-64
2022/02/25 03:26:45;;;;;;;;;;;4.10;99.90;;;;;;5038356;28;20444;-64
2022/02/25 03:29:11;;;;;;;;;;;4.10;99.90;;;;;;5056496;28;19952;-64
2022/02/25 03:31:36;;;;;;;;;;;4.10;99.90;;;;;;5055966;28;19909;-65
2022/02/25 03:34:02;;;;;;;;;;;4.10;99.90;;;;;;5056360;28;19919;-66
2022/02/25 03:36:27;;;;;;;;;;;4.00;99.90;;;;;;5038693;28;19904;-64
2022/02/25 03:38:53;;;;;;;;;;;4.10;99.90;;;;;;5055873;28;19912;-64
2022/02/25 03:41:18;;;;;;;;;;;4.20;99.90;;;;;;5054954;28;19927;-65
2022/02/25 03:43:44;;;;;;;;;;;4.20;99.90;;;;;;5055919;28;19921;-66
2022/02/25 03:46:09;;;;;;;;;;;4.10;99.90;;;;;;5056007;28;19934;-64
2022/02/25 03:48:35;;;;;;;;;;;4.10;99.90;;;;;;5038065;28;20526;-70
2022/02/25 03:51:00;;;;;;;;;;;4.00;99.90;;;;;;5038131;28;19927;-67
2022/02/25 03:53:28;;;;;;;;;;;4.00;99.90;;;;;;5055710;28;19950;-68
2022/02/25 03:55:53;;;;;;;;;;;4.00;99.90;;;;;;5056511;28;19912;-67
2022/02/25 03:58:19;;;;;;;;;;;4.00;99.90;;;;;;5055582;28;19905;-66
2022/02/25 04:00:44;;;;;;;;;;;4.00;99.90;;;;;;5056902;28;19944;-64
2022/02/25 04:03:10;;;;;;;;;;;4.00;99.90;;;;;;5057971;28;19912;-64
2022/02/25 04:05:35;;;;;;;;;;;4.00;99.90;;;;;;5057312;28;20012;-64
2022/02/25 04:08:02;;;;;;;;;;;4.00;99.90;;;;;;5057749;28;19987;-65
2022/02/25 04:10:28;;;;;;;;;;;4.00;99.90;;;;;;5039674;28;19905;-65
2022/02/25 04:12:54;;;;;;;;;;;4.00;99.90;;;;;;5040515;28;20368;-67
2022/02/25 04:15:19;;;;;;;;;;;3.90;99.90;;;;;;5040137;28;20268;-64
2022/02/25 04:17:45;;;;;;;;;;;3.90;99.90;;;;;;5058536;28;19944;-65
2022/02/25 04:20:11;;;;;;;;;;;3.90;99.90;;;;;;5058514;28;19955;-64
2022/02/25 04:22:36;;;;;;;;;;;3.90;99.90;;;;;;5058309;28;19905;-65
2022/02/25 04:25:02;;;;;;;;;;;3.80;99.90;;;;;;5057945;28;19913;-64
2022/02/25 04:27:27;;;;;;;;;;;3.80;99.90;;;;;;5039760;28;19905;-65
2022/02/25 04:29:53;;;;;;;;;;;3.70;99.90;;;;;;5040503;28;19953;-64
2022/02/25 04:32:18;;;;;;;;;;;3.60;99.90;;;;;;5057714;28;19912;-70
2022/02/25 04:34:44;;;;;;;;;;;3.70;99.90;;;;;;5057826;28;19912;-64
2022/02/25 04:37:09;;;;;;;;;;;3.60;99.90;;;;;;5040601;28;20368;-67
2022/02/25 04:39:35;;;;;;;;;;;3.70;99.90;;;;;;5058346;28;19916;-67
2022/02/25 04:42:00;;;;;;;;;;;3.70;99.90;;;;;;5057854;28;19908;-67
2022/02/25 04:44:26;;;;;;;;;;;3.60;99.90;;;;;;5038667;28;19915;-64
2022/02/25 04:46:52;;;;;;;;;;;3.60;99.90;;;;;;5056246;28;19904;-64
2022/02/25 04:49:18;;;;;;;;;;;3.50;99.90;;;;;;5038241;28;19959;-66
2022/02/25 04:51:43;;;;;;;;;;;3.30;99.90;;;;;;5055346;28;19905;-65
2022/02/25 04:54:09;;;;;;;;;;;3.20;99.90;;;;;;5055527;28;19905;-64
2022/02/25 04:56:34;;;;;;;;;;;3.20;99.90;;;;;;5056021;28;20092;-64
2022/02/25 04:59:00;;;;;;;;;;;3.40;99.90;;;;;;5055696;28;19956;-66
2022/02/25 05:01:26;;;;;;;;;;;3.30;99.90;;;;;;5037437;28;19948;-65
2022/02/25 05:03:51;;;;;;;;;;;3.20;99.90;;;;;;5055784;28;20354;-63
2022/02/25 05:06:17;;;;;;;;;;;3.40;99.90;;;;;;5037761;28;19920;-64
2022/02/25 05:08:43;;;;;;;;;;;3.40;99.90;;;;;;5037162;28;20315;-64
2022/02/25 05:11:09;;;;;;;;;;;3.40;99.90;;;;;;5055823;28;19965;-64
2022/02/25 05:13:35;;;;;;;;;;;3.50;99.90;;;;;;5038456;28;19970;-65
2022/02/25 05:21:29;;;;;;;;;;;3.60;99.90;;;;;;5054723;28;19977;-65
2022/02/25 05:23:54;;;;;;;;;;;3.60;99.90;;;;;;5037468;28;19995;-64
2022/02/25 05:26:20;;;;;;;;;;;3.60;99.90;;;;;;5037232;28;19920;-64
2022/02/25 05:28:45;;;;;;;;;;;3.60;99.90;;;;;;5036852;28;19913;-64
2022/02/25 05:31:11;;;;;;;;;;;3.70;99.90;;;;;;5055386;28;20323;-64
2022/02/25 05:33:36;;;;;;;;;;;3.60;99.90;;;;;;5054626;28;19919;-64
2022/02/25 05:36:02;;;;;;;;;;;3.60;99.90;;;;;;5038089;28;19954;-64
2022/02/25 05:38:27;;;;;;;;;;;3.50;99.90;;;;;;5055125;28;19905;-69
2022/02/25 05:40:53;;;;;;;;;;;3.60;99.90;;;;;;5056859;28;19908;-66
2022/02/25 05:43:19;;;;;;;;;;;3.50;99.90;;;;;;5021181;28;19908;-65
2022/02/25 05:45:44;;;;;;;;;;;3.50;99.90;;;;;;5055403;28;20434;-65
2022/02/25 05:48:10;;;;;;;;;;;3.50;99.90;;;;;;5038221;28;19908;-71
2022/02/25 05:50:36;;;;;;;;;;;3.50;99.90;;;;;;5055481;28;20008;-65
2022/02/25 05:53:01;;;;;;;;;;;3.40;99.90;;;;;;5021723;28;20234;-65
2022/02/25 05:55:27;;;;;;;;;;;3.40;99.90;;;;;;5055060;28;20342;-64
2022/02/25 05:57:54;;;;;;;;;;;3.30;99.90;;;;;;5055632;28;19911;-67
2022/02/25 06:00:20;;;;;;;;;;;3.30;99.90;;;;;;5037717;28;19912;-65
2022/02/25 06:02:46;;;;;;;;;;;3.20;99.90;;;;;;5037153;28;20356;-65
2022/02/25 06:05:14;;;;;;;;;;;3.30;99.90;;;;;;5055556;28;19916;-64
2022/02/25 06:07:40;;;;;;;;;;;3.30;99.90;;;;;;5037793;28;19915;-66
2022/02/25 06:10:07;;;;;;;;;;;3.30;99.90;;;;;;5039047;28;19905;-65
2022/02/25 06:12:32;;;;;;;;;;;3.30;99.90;;;;;;5056907;28;19915;-64
2022/02/25 06:14:58;;;;;;;;;;;3.30;99.90;;;;;;5039284;28;19909;-67
2022/02/25 06:17:23;;;;;;;;;;;3.10;99.90;;;;;;5037887;28;20362;-63
2022/02/25 06:19:49;;;;;;;;;;;3.30;99.90;;;;;;5055997;28;20019;-66
2022/02/25 06:22:15;;;;;;;;;;;3.20;99.90;;;;;;5056257;28;19966;-66
2022/02/25 06:24:40;;;;;;;;;;;3.20;99.90;;;;;;5055540;28;19917;-66
2022/02/25 06:27:06;;;;;;;;;;;3.30;99.90;;;;;;5057145;28;19905;-65
2022/02/25 06:29:31;;;;;;;;;;;3.20;99.90;;;;;;5057652;28;19904;-67
2022/02/25 06:31:57;;;;;;;;;;;3.20;99.90;;;;;;5056579;28;19904;-74
2022/02/25 06:34:23;;;;;;;;;;;3.20;99.90;;;;;;5049241;28;19905;-63
2022/02/25 06:36:48;;;;;;;;;;;3.40;99.90;;;;;;5050584;28;19905;-65
2022/02/25 06:39:15;;;;;;;;;;;5.30;99.90;;;;;;5031768;28;20357;-62
2022/02/25 06:41:40;;;;;;;;;;;5.50;99.90;;;;;;5033791;28;19908;-67
2022/02/25 06:44:06;;;;;;;;;;;5.10;99.90;;;;;;5056788;28;19920;-68
2022/02/25 06:46:32;;;;;;;;;;;4.40;99.90;;;;;;5049107;28;19917;-66
2022/02/25 06:48:57;;;;;;;;;;;4.20;99.90;;;;;;5040180;28;20200;-65
2022/02/25 06:51:23;;;;;;;;;;;3.90;99.90;;;;;;5017562;28;19905;-65
2022/02/25 06:53:49;;;;;;;;;;;3.70;99.90;;;;;;5035979;28;19909;-65
2022/02/25 06:56:14;;;;;;;;;;;3.60;99.90;;;;;;5002218;28;19916;-66
2022/02/25 06:58:39;;;;;;;;;;;3.70;99.90;;;;;;5033972;28;19956;-68
2022/02/25 07:01:05;;;;;;;;;;;3.60;99.90;;;;;;5034612;28;20274;-64
2022/02/25 07:03:32;;;;;;;;;;;3.70;99.90;;;;;;5017727;28;19905;-66
2022/02/25 07:05:58;;;;;;;;;;;3.70;99.90;;;;;;5018722;28;19920;-67
2022/02/25 07:08:23;;;;;;;;;;;3.80;99.90;;;;;;5038612;28;19905;-65
2022/02/25 07:10:50;;;;;;;;;;;4.10;99.90;;;;;;5053763;28;19967;-67
2022/02/25 07:13:16;;;;;;;;;;;4.20;99.90;;;;;;5044334;28;19976;-65
2022/02/25 07:15:41;;;;;;;;;;;4.40;99.90;;;;;;5025296;28;19917;-64
2022/02/25 07:18:08;;;;;;;;;;;4.30;99.90;;;;;;5033035;28;19905;-66
2022/02/25 07:20:35;;;;;;;;;;;4.50;99.90;;;;;;5041110;28;19974;-66
2022/02/25 07:23:01;;;;;;;;;;;4.60;99.90;;;;;;5036822;28;20350;-65
2022/02/25 07:25:27;;;;;;;;;;;4.50;99.90;;;;;;5054455;28;19912;-64
2022/02/25 07:27:53;;;;;;;;;;;4.80;99.90;;;;;;5035563;28;19930;-64
2022/02/25 07:30:18;;;;;;;;;;;5.20;99.90;;;;;;5035521;28;20361;-67
2022/02/25 07:32:44;;;;;;;;;;;5.40;99.90;;;;;;5024645;28;19909;-65
2022/02/25 07:35:13;;;;;;;;;;;5.50;99.90;;;;;;5055053;28;19904;-65
2022/02/25 07:37:39;;;;;;;;;;;5.30;99.90;;;;;;5039055;28;19928;-65
2022/02/25 07:40:05;;;;;;;;;;;5.30;99.90;;;;;;5051924;28;20341;-66
2022/02/25 07:42:31;;;;;;;;;;;5.40;99.90;;;;;;5028277;28;19909;-71
2022/02/25 07:44:56;;;;;;;;;;;5.50;99.90;;;;;;5038206;28;19923;-70
2022/02/25 07:47:23;;;;;;;;;;;5.90;99.90;;;;;;5039261;28;19955;-67
2022/02/25 07:49:50;;;;;;;;;;;6.10;99.90;;;;;;5021439;28;19915;-68
2022/02/25 07:52:15;;;;;;;;;;;6.20;99.90;;;;;;5038112;28;20000;-67
2022/02/25 07:54:41;;;;;;;;;;;6.20;99.90;;;;;;5036775;28;19940;-65
2022/02/25 07:57:07;;;;;;;;;;;6.10;99.90;;;;;;5036856;28;19905;-64
2022/02/25 07:59:32;;;;;;;;;;;6.20;99.90;;;;;;5019079;28;20363;-70
2022/02/25 08:01:58;;;;;;;;;;;6.10;99.90;;;;;;5019848;28;19986;-68
2022/02/25 08:04:24;;;;;;;;;;;6.20;99.90;;;;;;5037362;28;19905;-64
2022/02/25 08:06:52;;;;;;;;;;;6.10;99.90;;;;;;5036417;28;19912;-65
2022/02/25 08:09:23;;;;;;;;;;;6.20;99.90;;;;;;5037682;28;19905;-65
2022/02/25 08:11:49;;;;;;;;;;;6.30;99.90;;;;;;5032468;28;19994;-66
2022/02/25 08:14:15;;;;;;;;;;;6.40;99.90;;;;;;5056701;28;19920;-63
2022/02/25 08:16:40;;;;;;;;;;;6.50;99.90;;;;;;5055615;28;19904;-65
2022/02/25 08:19:07;;;;;;;;;;;6.20;99.90;;;;;;5057285;28;20329;-64
2022/02/25 08:21:33;;;;;;;;;;;6.80;99.90;;;;;;5053895;28;19956;-74
2022/02/25 08:23:59;;;;;;;;;;;6.80;99.90;;;;;;5038711;28;19912;-67
2022/02/25 08:26:25;;;;;;;;;;;7.00;99.90;;;;;;5038743;28;19916;-65
2022/02/25 08:28:52;;;;;;;;;;;6.70;99.90;;;;;;5057428;28;20203;-65
2022/02/25 08:31:17;;;;;;;;;;;7.20;99.90;;;;;;5057317;28;19927;-65
2022/02/25 08:33:43;;;;;;;;;;;7.20;99.90;;;;;;5055764;28;19905;-64
2022/02/25 08:36:09;;;;;;;;;;;7.50;99.90;;;;;;5037855;28;19927;-67
2022/02/25 08:38:34;;;;;;;;;;;7.80;99.90;;;;;;5028983;28;19909;-73
2022/02/25 08:41:00;;;;;;;;;;;7.80;99.90;;;;;;5045331;28;20000;-64
2022/02/25 08:43:26;;;;;;;;;;;8.10;99.90;;;;;;5048327;28;20246;-63
2022/02/25 08:45:53;;;;;;;;;;;8.20;99.90;;;;;;5048557;28;20374;-65
2022/02/25 08:48:19;;;;;;;;;;;8.00;99.90;;;;;;5057703;28;19905;-64
2022/02/25 08:50:44;;;;;;;;;;;8.00;99.90;;;;;;5050824;28;20014;-66
2022/02/25 08:53:10;;;;;;;;;;;7.90;99.90;;;;;;5045289;28;19905;-66
2022/02/25 08:55:35;;;;;;;;;;;7.30;99.90;;;;;;5020256;28;19979;-71
2022/02/25 08:58:01;;;;;;;;;;;7.40;99.90;;;;;;5055964;28;19926;-64
2022/02/25 09:00:28;;;;;;;;;;;7.70;99.90;;;;;;5056322;28;19959;-67
2022/02/25 09:02:53;;;;;;;;;;;7.60;99.90;;;;;;5039590;28;19954;-67
2022/02/25 09:05:21;;;;;;;;;;;7.80;99.90;;;;;;5023268;28;19916;-65
2022/02/25 09:07:47;;;;;;;;;;;7.50;99.90;;;;;;5039444;28;19912;-69
2022/02/25 09:10:15;;;;;;;;;;;7.40;99.90;;;;;;5039413;28;19905;-69
2022/02/25 09:12:41;;;;;;;;;;;7.50;99.90;;;;;;5006733;28;19909;-65
2022/02/25 09:15:08;;;;;;;;;;;7.50;99.90;;;;;;5019475;28;20313;-67
2022/02/25 09:17:33;;;;;;;;;;;7.20;99.90;;;;;;5037909;28;19992;-67
2022/02/25 09:19:59;;;;;;;;;;;7.10;99.90;;;;;;5051421;28;19958;-65
2022/02/25 09:22:25;;;;;;;;;;;7.10;99.90;;;;;;5055179;28;19940;-65
2022/02/25 09:24:50;;;;;;;;;;;7.10;99.90;;;;;;5035880;28;19921;-65
2022/02/25 09:27:16;;;;;;;;;;;6.80;99.90;;;;;;5037961;28;19904;-68
2022/02/25 09:29:42;;;;;;;;;;;6.90;99.90;;;;;;5026946;28;19912;-65
2022/02/25 09:32:07;;;;;;;;;;;6.80;99.90;;;;;;5014107;28;20035;-66
2022/02/25 09:34:34;;;;;;;;;;;6.50;99.90;;;;;;5018324;28;19916;-65
2022/02/25 09:36:59;;;;;;;;;;;6.60;99.90;;;;;;5032798;28;20062;-65
2022/02/25 09:39:25;;;;;;;;;;;6.40;99.90;;;;;;5017254;28;19992;-68
2022/02/25 09:41:51;;;;;;;;;;;6.30;99.90;;;;;;5016511;28;19909;-63
2022/02/25 09:44:17;;;;;;;;;;;6.10;99.90;;;;;;5033346;28;19917;-69
2022/02/25 09:46:44;;;;;;;;;;;9.10;99.90;;;;;;5014649;28;20382;-70
2022/02/25 09:49:10;;;;;;;;;;;9.80;99.90;;;;;;5022764;28;20251;-66
2022/02/25 09:51:36;;;;;;;;;;;8.10;99.90;;;;;;5014234;28;20026;-69
2022/02/25 09:54:02;;;;;;;;;;;7.60;99.90;;;;;;5019069;28;20291;-65
2022/02/25 09:56:28;;;;;;;;;;;7.10;99.90;;;;;;5026528;28;19943;-64
2022/02/25 09:58:54;;;;;;;;;;;6.90;99.90;;;;;;5015833;28;19927;-63
2022/02/25 10:01:20;;;;;;;;;;;6.60;99.90;;;;;;5015728;28;20434;-65
2022/02/25 10:03:52;;;;;;;;;;;6.60;99.90;;;;;;5027059;28;19952;-68
2022/02/25 10:06:17;;;;;;;;;;;6.40;99.90;;;;;;5035489;28;19922;-65
2022/02/25 10:08:43;;;;;;;;;;;6.50;99.90;;;;;;5037476;28;19999;-65
2022/02/25 10:11:09;;;;;;;;;;;6.40;99.90;;;;;;5048525;28;19908;-68
2022/02/25 10:13:34;;;;;;;;;;;6.50;99.90;;;;;;5024756;28;20266;-68
2022/02/25 10:16:03;;;;;;;;;;;6.30;99.90;;;;;;5033093;28;19923;-65
2022/02/25 10:18:31;;;;;;;;;;;6.20;99.90;;;;;;5045715;28;20001;-65
2022/02/25 10:21:01;;;;;;;;;;;6.30;99.90;;;;;;5042501;28;19917;-67
2022/02/25 10:23:27;;;;;;;;;;;6.30;99.90;;;;;;5033283;28;19905;-64
2022/02/25 10:26:08;;;;;;;;;;;6.20;99.90;;;;;;5048485;28;19913;-67
2022/02/25 10:28:35;;;;;;;;;;;6.20;99.90;;;;;;5038126;28;19905;-67
2022/02/25 10:31:14;;;;;;;;;;;6.20;99.90;;;;;;5019289;28;20186;-66
2022/02/25 10:33:41;;;;;;;;;;;6.30;99.90;;;;;;5036237;28;19995;-65
2022/02/25 10:36:06;;;;;;;;;;;6.30;99.90;;;;;;5053620;28;19909;-65
2022/02/25 10:38:37;;;;;;;;;;;6.40;99.90;;;;;;5035581;28;19905;-66
2022/02/25 10:41:03;;;;;;;;;;;6.30;99.90;;;;;;5053232;28;19904;-64
2022/02/25 10:43:30;;;;;;;;;;;6.40;99.90;;;;;;5053714;28;19952;-67
2022/02/25 10:46:03;;;;;;;;;;;6.50;99.90;;;;;;5052938;28;20324;-65
2022/02/25 10:48:30;;;;;;;;;;;6.50;99.90;;;;;;5034734;28;19915;-67
2022/02/25 10:50:57;;;;;;;;;;;6.60;99.90;;;;;;5035547;28;19955;-65
2022/02/25 10:53:32;;;;;;;;;;;6.50;99.90;;;;;;5053335;28;20393;-65
2022/02/25 10:56:11;;;;;;;;;;;6.40;99.90;;;;;;5034559;28;19927;-65
2022/02/25 10:58:41;;;;;;;;;;;6.30;99.90;;;;;;5024294;28;19912;-65
2022/02/25 11:01:07;;;;;;;;;;;6.40;99.90;;;;;;5047771;28;19905;-66
2022/02/25 11:03:32;;;;;;;;;;;6.30;99.90;;;;;;5017071;28;19982;-70
2022/02/25 11:05:58;;;;;;;;;;;6.30;99.90;;;;;;5034758;28;20068;-69
2022/02/25 11:08:23;;;;;;;;;;;6.30;99.90;;;;;;5016164;28;19909;-68
2022/02/25 11:10:50;;;;;;;;;;;6.30;99.90;;;;;;5043706;28;20350;-67
2022/02/25 11:13:17;;;;;;;;;;;6.10;99.90;;;;;;5039914;28;19908;-69
2022/02/25 11:15:44;;;;;;;;;;;6.10;99.90;;;;;;5037591;28;19928;-67
2022/02/25 11:18:13;;;;;;;;;;;6.00;99.90;;;;;;5025611;28;19905;-66
2022/02/25 11:20:43;;;;;;;;;;;6.00;99.90;;;;;;5036554;28;19939;-66
2022/02/25 11:23:09;;;;;;;;;;;6.00;99.90;;;;;;5044819;28;20384;-67
2022/02/25 11:25:36;;;;;;;;;;;6.10;99.90;;;;;;5043359;28;19917;-69
2022/02/25 11:28:02;;;;;;;;;;;6.20;99.90;;;;;;5055862;28;19904;-66
2022/02/25 11:30:27;;;;;;;;;;;6.10;99.90;;;;;;5055023;28;19916;-67
2022/02/25 11:32:58;;;;;;;;;;;6.20;99.90;;;;;;5028241;28;19904;-68
2022/02/25 11:35:26;;;;;;;;;;;6.00;99.90;;;;;;5040690;28;19954;-67
2022/02/25 11:37:57;;;;;;;;;;;6.10;99.90;;;;;;5036850;28;19916;-71
2022/02/25 11:40:58;;;;;;;;;;;6.10;99.90;;;;;;5050218;28;19909;-68
2022/02/25 11:43:38;;;;;;;;;;;6.00;99.90;;;;;;4941952;29;19958;-68
2022/02/25 11:46:04;;;;;;;;;;;6.00;99.90;;;;;;5029761;28;19985;-67
2022/02/25 11:48:38;;;;;;;;;;;6.10;99.90;;;;;;5041658;28;19920;-68
2022/02/25 11:51:04;;;;;;;;;;;6.10;99.90;;;;;;5059920;28;19912;-66
2022/02/25 11:53:29;;;;;;;;;;;6.20;99.90;;;;;;5041478;28;19909;-68
2022/02/25 11:56:15;;;;;;;;;;;6.00;99.90;;;;;;5058735;28;19915;-68
2022/02/25 11:58:41;;;;;;;;;;;6.00;99.90;;;;;;5058343;28;19905;-67
2022/02/25 12:01:14;;;;;;;;;;;6.00;99.90;;;;;;5040339;28;20405;-70
2022/02/25 12:04:07;;;;;;;;;;;6.10;99.90;;;;;;5052571;28;19908;-69
2022/02/25 12:06:52;;;;;;;;;;;6.20;99.90;;;;;;5036842;28;19916;-68
2022/02/25 12:09:37;;;;;;;;;;;6.10;99.90;;;;;;5021968;28;19905;-67
2022/02/25 12:12:24;;;;;;;;;;;6.30;99.90;;;;;;5037792;28;20347;-68
2022/02/25 12:15:08;;;;;;;;;;;6.20;99.90;;;;;;5019042;28;19920;-68
2022/02/25 12:17:38;;;;;;;;;;;6.30;99.90;;;;;;5022802;28;19913;-68
2022/02/25 12:20:10;;;;;;;;;;;6.30;99.90;;;;;;5046012;28;19924;-68
2022/02/25 12:23:05;;;;;;;;;;;6.40;99.90;;;;;;5019824;28;19909;-67
2022/02/25 12:25:40;;;;;;;;;;;6.50;99.90;;;;;;5019538;28;19952;-66
2022/02/25 12:28:27;;;;;;;;;;;6.50;99.90;;;;;;5019535;28;19912;-69
2022/02/25 12:30:59;;;;;;;;;;;6.50;99.90;;;;;;5028712;28;19941;-71
2022/02/25 12:33:30;;;;;;;;;;;6.40;99.90;;;;;;5036196;28;19905;-66
2022/02/25 12:35:57;;;;;;;;;;;6.50;99.90;;;;;;5039194;28;20002;-67
2022/02/25 12:38:26;;;;;;;;;;;6.60;99.90;;;;;;5057204;28;20377;-72
2022/02/25 12:40:52;;;;;;;;;;;6.70;99.90;;;;;;5039113;28;19904;-68
2022/02/25 12:43:18;;;;;;;;;;;6.70;99.90;;;;;;5038524;28;20338;-68
2022/02/25 12:45:44;;;;;;;;;;;6.80;99.90;;;;;;5043985;28;19920;-67
2022/02/25 12:48:10;;;;;;;;;;;7.00;99.90;;;;;;5054742;28;20366;-66
2022/02/25 12:50:40;;;;;;;;;;;7.20;99.90;;;;;;5057120;28;19909;-66
2022/02/25 12:53:06;;;;;;;;;;;7.60;99.90;;;;;;5056358;28;19904;-67
2022/02/25 12:55:32;;;;;;;;;;;8.40;99.90;;;;;;5050119;28;19905;-66
2022/02/25 12:57:57;;;;;;;;;;;8.70;99.90;;;;;;5054876;28;19936;-66
2022/02/25 13:00:23;;;;;;;;;;;9.30;99.90;;;;;;5038183;28;19927;-66
2022/02/25 13:02:55;;;;;;;;;;;9.50;99.90;;;;;;5056479;28;19962;-66
2022/02/25 13:05:21;;;;;;;;;;;9.80;99.90;;;;;;5056335;28;20011;-66
2022/02/25 13:07:56;;;;;;;;;;;10.20;99.90;;;;;;5047219;28;19916;-67
2022/02/25 13:10:26;;;;;;;;;;;9.80;99.70;;;;;;5055922;28;19976;-66
2022/02/25 13:12:51;;;;;;;;;;;9.30;99.80;;;;;;5055189;28;19905;-69
2022/02/25 13:15:24;;;;;;;;;;;9.10;99.90;;;;;;5042233;28;20023;-66
2022/02/25 13:17:49;;;;;;;;;;;9.20;99.90;;;;;;5056165;28;19905;-66
2022/02/25 13:20:15;;;;;;;;;;;9.10;99.90;;;;;;5054785;28;20036;-66
2022/02/25 13:22:43;;;;;;;;;;;8.90;99.90;;;;;;5036697;28;19908;-68
2022/02/25 13:25:21;;;;;;;;;;;8.90;99.90;;;;;;5054004;28;19968;-68
2022/02/25 13:27:48;;;;;;;;;;;8.90;99.90;;;;;;5053056;28;19908;-66
2022/02/25 13:30:19;;;;;;;;;;;8.80;99.90;;;;;;5041201;28;19905;-66
2022/02/25 13:32:49;;;;;;;;;;;8.60;99.90;;;;;;5024645;28;19951;-66
2022/02/25 13:35:14;;;;;;;;;;;8.60;99.90;;;;;;5021019;28;19909;-67
2022/02/25 13:37:44;;;;;;;;;;;8.40;99.90;;;;;;5054395;28;19927;-67
2022/02/25 13:40:23;;;;;;;;;;;8.20;99.90;;;;;;5055433;28;20320;-69
2022/02/25 13:42:48;;;;;;;;;;;8.00;99.90;;;;;;5039256;28;19951;-67
2022/02/25 13:45:26;;;;;;;;;;;8.00;99.90;;;;;;5037354;28;19955;-69
2022/02/25 13:53:20;;;;;;;;;;;7.90;99.90;;;;;;5054516;28;19931;-67
2022/02/25 13:56:00;;;;;;;;;;;7.90;99.90;;;;;;5031354;28;20415;-68
2022/02/25 13:58:27;;;;;;;;;;;7.90;99.90;;;;;;5036667;28;19920;-67
2022/02/25 14:00:53;;;;;;;;;;;7.80;99.90;;;;;;5047797;28;19909;-68
2022/02/25 14:03:18;;;;;;;;;;;7.90;99.90;;;;;;5034492;28;19927;-66
2022/02/25 14:05:44;;;;;;;;;;;7.80;99.90;;;;;;5034404;28;19954;-66
2022/02/25 14:08:19;;;;;;;;;;;7.70;99.90;;;;;;5054058;28;19912;-66
2022/02/25 14:10:44;;;;;;;;;;;7.60;99.90;;;;;;5036462;28;19976;-65
2022/02/25 14:13:10;;;;;;;;;;;7.50;99.90;;;;;;5048619;28;19940;-67
2022/02/25 14:15:40;;;;;;;;;;;7.60;99.90;;;;;;5035054;28;19924;-66
2022/02/25 14:18:07;;;;;;;;;;;7.60;99.90;;;;;;5053696;28;19912;-67
2022/02/25 14:20:33;;;;;;;;;;;7.50;99.90;;;;;;5027549;28;20450;-69
2022/02/25 14:23:01;;;;;;;;;;;7.40;99.90;;;;;;5016465;28;19998;-67
2022/02/25 14:25:30;;;;;;;;;;;7.60;99.90;;;;;;5014485;28;19921;-67
2022/02/25 14:28:10;;;;;;;;;;;7.80;99.90;;;;;;5013177;28;19913;-73
2022/02/25 14:30:40;;;;;;;;;;;8.20;99.90;;;;;;5016419;28;19920;-68
2022/02/25 14:33:11;;;;;;;;;;;8.30;99.90;;;;;;5015002;28;20106;-71
2022/02/25 14:35:37;;;;;;;;;;;8.40;99.90;;;;;;5012664;28;19924;-69
2022/02/25 14:38:03;;;;;;;;;;;8.30;99.90;;;;;;5011050;28;19909;-69
2022/02/25 14:40:29;;;;;;;;;;;8.30;99.90;;;;;;5015089;28;19932;-70
2022/02/25 14:42:56;;;;;;;;;;;8.20;99.90;;;;;;5015298;28;19952;-68